WetterOnline ( https://www.wetteronline.ch )

Wetter aktuell Emden

Aktuelles Wetter: Emden (5m)

6-stündlich | Neueste Meldungen
Ortszeit Temperatur Wetter
Mo, 27.05. 8:00 12.7° C leicht bewölkt
Mo, 27.05. 2:00 13.5° C bewölkt
So, 26.05. 20:00 15.5° C Sprühregen
So, 26.05. 14:00 19.6° C bedeckt
So, 26.05. 8:00 13.3° C bedeckt
So, 26.05. 2:00 9.5° C bedeckt
Sa, 25.05. 20:00 12.6° C leicht bewölkt
Sa, 25.05. 14:00 13.1° C bedeckt
Ortszeit Temperatur Wetter
Mo, 27.05. 9:30 14.3° C leicht bewölkt
Mo, 27.05. 9:20 14.3° C leicht bewölkt
Mo, 27.05. 9:10 14.4° C leicht bewölkt
Mo, 27.05. 9:00 14.1° C wolkenlos
Mo, 27.05. 8:50 14.1° C wolkenlos
Mo, 27.05. 8:40 13.9° C wolkenlos
Mo, 27.05. 8:30 13.4° C fast wolkenlos
Mo, 27.05. 8:00 12.7° C leicht bewölkt
Mo, 27.05. 7:30 11.9° C wolkig
Mo, 27.05. 7:00 11.5° C fast wolkenlos
Mo, 27.05. 6:30 10.9° C wolkig
Ortszeit Relative Feuchte Sichtweite
Mo, 27.05. 8:00 80% 35 km
Mo, 27.05. 2:00 93% 19 km
So, 26.05. 20:00 85% 30 km
So, 26.05. 14:00 64% 45 km
So, 26.05. 8:00 77% 27 km
So, 26.05. 2:00 87% 50 km
Sa, 25.05. 20:00 67% >70 km
Sa, 25.05. 14:00 65% >70 km
Ortszeit Relative Feuchte Sichtweite
Mo, 27.05. 9:30 68% 65 km
Mo, 27.05. 9:20 68% -
Mo, 27.05. 9:10 68% -
Mo, 27.05. 9:00 71% 50 km
Mo, 27.05. 8:50 71% -
Mo, 27.05. 8:40 72% -
Mo, 27.05. 8:30 75% 40 km
Mo, 27.05. 8:00 80% 35 km
Mo, 27.05. 7:30 84% 30 km
Mo, 27.05. 7:00 86% 35 km
Mo, 27.05. 6:30 91% 28 km
Ortszeit Niederschlagsmenge Niederschlagsart
Mo, 27.05. 8:00 7 l/m2 in 12 Std. -
Mo, 27.05. 2:00 7 l/m2 in 6 Std. Regen
So, 26.05. 20:00 2 l/m2 in 12 Std. Regen
So, 26.05. 14:00 0.1 l/m2 in 6 Std. Regen
So, 26.05. 8:00 0.1 l/m2 in 12 Std. Regen
So, 26.05. 2:00 0.0 l/m2 in 6 Std. -
Sa, 25.05. 20:00 0.1 l/m2 in 12 Std. -
Sa, 25.05. 14:00 0.1 l/m2 in 6 Std. Sprühregen
Ortszeit Niederschlagsmenge Niederschlagsart
Mo, 27.05. 9:30 0.0 l/m2 in 1 Std. -
Mo, 27.05. 9:20 keine Meldung -
Mo, 27.05. 9:10 keine Meldung -
Mo, 27.05. 9:00 0.0 l/m2 in 1 Std. -
Mo, 27.05. 8:50 keine Meldung -
Mo, 27.05. 8:40 keine Meldung -
Mo, 27.05. 8:30 0.0 l/m2 in 1 Std. -
Mo, 27.05. 8:00 0.0 l/m2 in 1 Std. -
Mo, 27.05. 7:30 0.0 l/m2 in 1 Std. -
Mo, 27.05. 7:00 0.0 l/m2 in 1 Std. -
Mo, 27.05. 6:30 0.0 l/m2 in 1 Std. -
Ortszeit Stärke Spitze Richtung
km/h Bft. km/h Grad Sektor
Mo, 27.05. 8:00 14 3 25 250° W
Mo, 27.05. 2:00 17 3 44 250° W
So, 26.05. 20:00 18 3 47 240° SW
So, 26.05. 14:00 18 3 43 240° SW
So, 26.05. 8:00 17 3 28 210° SW
So, 26.05. 2:00 7 2 18 180° S
Sa, 25.05. 20:00 13 3 28 310° NW
Sa, 25.05. 14:00 13 3 28 310° NW
Ortszeit Stärke Spitze Richtung
km/h Bft. km/h Grad Sektor
Mo, 27.05. 9:30 18 3 32 260° W
Mo, 27.05. 9:20 18 3 - 260° W
Mo, 27.05. 9:10 17 3 - 250° W
Mo, 27.05. 9:00 17 3 26 250° W
Mo, 27.05. 8:50 17 3 - 250° W
Mo, 27.05. 8:40 15 3 - 250° W
Mo, 27.05. 8:30 13 3 24 250° W
Mo, 27.05. 8:00 14 3 22 250° W
Mo, 27.05. 7:30 11 2 18 240° SW
Mo, 27.05. 7:00 11 2 18 250° W
Mo, 27.05. 6:30 9 2 17 250° W
Ortszeit Untergrenze Bedeckung Gattung
total tief tief mittel hoch
Mo, 27.05. 8:00 1500 m 3/8 3/8 - - -
Mo, 27.05. 2:00 270 m 8/8 7/8 - - -
So, 26.05. 20:00 750 m 8/8 8/8 - - -
So, 26.05. 14:00 1020 m 8/8 8/8 - - -
So, 26.05. 8:00 1080 m 8/8 8/8 - - -
So, 26.05. 2:00 4500 m 8/8 8/8 - - -
Sa, 25.05. 20:00 720 m 3/8 1/8 - - -
Sa, 25.05. 14:00 660 m 8/8 8/8 - - -
Ortszeit Bedeckungsgrad in Achtel und Wolkenuntergrenze
Mo, 27.05. 9:30 5(7200m) 6(7800m)
Mo, 27.05. 9:20 5(7200m) 6(7800m)
Mo, 27.05. 9:10 3(7200m) 4(8100m)
Mo, 27.05. 9:00 1(8100m)
Mo, 27.05. 8:50 keine Wolken
Mo, 27.05. 8:40 keine Wolken
Mo, 27.05. 8:30 1(7800m)
Mo, 27.05. 8:00 3(1500m) 2(7800m)
Mo, 27.05. 7:30 5(1500m)
Mo, 27.05. 7:00 1(1500m)
Mo, 27.05. 6:30 5(1500m)
Ortszeit Luftdruck NN (hPa) Tendenz (hPa in 3 Std.)
Mo, 27.05. 8:00 1007 + 0,7
Mo, 27.05. 2:00 1007 - 0,4
So, 26.05. 20:00 1007 - 1,1
So, 26.05. 14:00 1009 - 0,9
So, 26.05. 8:00 1011 - 1,7
So, 26.05. 2:00 1015 - 2,0
Sa, 25.05. 20:00 1017 - 0,7
Sa, 25.05. 14:00 1018 + 0,3
Ortszeit Luftdruck NN (hPa) Tendenz (hPa in 3 Std.)
Mo, 27.05. 9:30 1008 + 0,8
Mo, 27.05. 9:20 1008 keine Meldung
Mo, 27.05. 9:10 1007 keine Meldung
Mo, 27.05. 9:00 1007 + 0,8
Mo, 27.05. 8:50 1007 keine Meldung
Mo, 27.05. 8:40 1007 keine Meldung
Mo, 27.05. 8:30 1007 + 0,6
Mo, 27.05. 8:00 1007 + 0,7
Mo, 27.05. 7:30 1007 + 0,2
Mo, 27.05. 7:00 1007 0,0
Mo, 27.05. 6:30 1007 + 0,3
Ortszeit Schneehöhe (cm)
Mo, 27.05. 8:00 -
Mo, 27.05. 2:00 -
So, 26.05. 20:00 -
So, 26.05. 14:00 -
So, 26.05. 8:00 -
So, 26.05. 2:00 -
Sa, 25.05. 20:00 -
Sa, 25.05. 14:00 -
Ortszeit Schneehöhe (cm)
Mo, 27.05. 9:30 -
Mo, 27.05. 9:20 -
Mo, 27.05. 9:10 -
Mo, 27.05. 9:00 -
Mo, 27.05. 8:50 -
Mo, 27.05. 8:40 -
Mo, 27.05. 8:30 -
Mo, 27.05. 8:00 -
Mo, 27.05. 7:30 -
Mo, 27.05. 7:00 -
Mo, 27.05. 6:30 -
Link zu dieser Seite / Seite empfehlen

Das Wetter in ...